Time;durP1;ratioP1;P1;durP2;ratioP2;P2;SDS_P1;SDS_P2;PMS_P1;PMS_P2;Temp;Humidity;BMP_temperature;BMP_pressure;BME280_temperature;BME280_humidity;BME280_pressure;Samples;Min_cycle;Max_cycle;Signal;HPM_P1;HPM_P2
2022/10/29 00:01:54;;;;;;;7.75;3.72;;;16.70;98.60;;;;;;941500;148;27306;-78
2022/10/29 00:04:21;;;;;;;7.92;4.00;;;16.70;98.70;;;;;;942670;148;27492;-78
2022/10/29 00:06:47;;;;;;;5.90;3.75;;;16.60;98.80;;;;;;942930;148;27361;-78
2022/10/29 00:09:14;;;;;;;5.37;3.52;;;16.60;98.90;;;;;;941639;148;27414;-78
2022/10/29 00:11:41;;;;;;;6.97;3.52;;;16.60;99.10;;;;;;941468;148;27307;-78
2022/10/29 00:14:07;;;;;;;8.40;3.55;;;16.60;99.40;;;;;;943438;150;27328;-78
2022/10/29 00:16:34;;;;;;;5.05;3.45;;;16.50;99.60;;;;;;941187;148;27375;-78
2022/10/29 00:19:00;;;;;;;8.18;3.58;;;16.50;99.80;;;;;;943390;148;27383;-78
2022/10/29 00:21:27;;;;;;;5.60;4.12;;;16.50;99.90;;;;;;940847;148;27333;-78
2022/10/29 00:23:54;;;;;;;7.75;3.92;;;16.50;99.90;;;;;;944140;148;27354;-78
2022/10/29 00:26:20;;;;;;;5.58;4.05;;;16.50;99.90;;;;;;942768;147;27321;-78
2022/10/29 00:28:47;;;;;;;7.90;4.30;;;16.50;99.90;;;;;;942264;148;27366;-78
2022/10/29 00:31:13;;;;;;;4.65;3.10;;;16.50;99.90;;;;;;943861;148;27365;-78
2022/10/29 00:33:40;;;;;;;5.28;4.03;;;16.60;99.90;;;;;;942476;148;28393;-78
2022/10/29 00:36:07;;;;;;;7.42;4.03;;;16.60;99.90;;;;;;943491;148;27323;-78
2022/10/29 00:38:33;;;;;;;7.30;4.42;;;16.60;99.90;;;;;;940374;150;27896;-78
2022/10/29 00:41:00;;;;;;;7.40;4.10;;;16.60;99.90;;;;;;942330;148;27737;-78
2022/10/29 00:43:26;;;;;;;9.85;4.90;;;16.70;99.90;;;;;;941300;150;27471;-78
2022/10/29 00:46:02;;;;;;;5.40;3.70;;;16.70;99.90;;;;;;941951;148;27524;-78
2022/10/29 00:48:29;;;;;;;7.05;4.47;;;16.70;99.90;;;;;;943105;148;27367;-78
2022/10/29 00:50:55;;;;;;;5.42;4.20;;;16.70;99.90;;;;;;955978;145;27286;-78
2022/10/29 00:53:22;;;;;;;7.25;4.17;;;16.70;99.90;;;;;;954286;146;27395;-78
2022/10/29 00:55:48;;;;;;;5.33;4.37;;;16.70;99.90;;;;;;949832;146;27336;-78
2022/10/29 00:58:15;;;;;;;6.87;4.20;;;16.70;99.90;;;;;;923882;150;27771;-78
2022/10/29 01:00:42;;;;;;;7.17;4.85;;;16.70;99.90;;;;;;926793;150;27377;-78
2022/10/29 01:03:08;;;;;;;6.25;3.50;;;16.60;99.90;;;;;;926548;150;27333;-78
2022/10/29 01:05:35;;;;;;;8.10;4.53;;;16.60;99.90;;;;;;920470;150;27338;-78
2022/10/29 01:08:01;;;;;;;6.30;4.15;;;16.60;99.90;;;;;;939628;149;27311;-78
2022/10/29 01:10:40;;;;;;;4.37;3.98;;;16.50;99.90;;;;;;936846;149;27362;-78
2022/10/29 01:13:18;;;;;;;7.83;4.30;;;16.50;99.90;;;;;;935532;149;27472;-78
2022/10/29 01:15:48;;;;;;;6.25;3.37;;;16.40;99.90;;;;;;934705;149;27298;-78
2022/10/29 01:18:17;;;;;;;6.05;3.87;;;16.40;99.90;;;;;;940599;147;27416;-78
2022/10/29 01:20:52;;;;;;;8.55;3.85;;;16.30;99.90;;;;;;933078;149;27381;-78
2022/10/29 01:23:55;;;;;;;8.18;4.25;;;16.30;99.90;;;;;;925757;150;27353;-78
2022/10/29 01:26:25;;;;;;;5.60;4.40;;;16.20;99.90;;;;;;887967;157;27645;-78
2022/10/29 01:29:10;;;;;;;7.55;4.55;;;16.20;99.90;;;;;;880716;158;27501;-79
2022/10/29 01:31:45;;;;;;;12.05;4.62;;;16.20;99.90;;;;;;924821;147;27325;-78
2022/10/29 01:34:23;;;;;;;7.10;4.22;;;16.10;99.90;;;;;;920726;150;27448;-79
2022/10/29 01:36:55;;;;;;;6.15;4.47;;;16.10;99.90;;;;;;943442;148;28500;-79
2022/10/29 01:39:36;;;;;;;9.13;4.87;;;16.00;99.90;;;;;;940963;150;27366;-78
2022/10/29 01:42:05;;;;;;;5.60;3.50;;;15.90;99.90;;;;;;938991;148;27501;-79
2022/10/29 01:44:35;;;;;;;6.27;4.17;;;15.90;99.90;;;;;;940902;148;27347;-78
2022/10/29 01:47:01;;;;;;;5.77;4.00;;;15.80;99.90;;;;;;941348;148;27426;-78
2022/10/29 01:49:28;;;;;;;5.85;4.00;;;15.80;99.90;;;;;;943421;147;27301;-78
2022/10/29 01:51:55;;;;;;;5.73;3.83;;;15.70;99.90;;;;;;941888;148;27364;-78
2022/10/29 01:54:21;;;;;;;7.33;4.17;;;15.70;99.90;;;;;;941802;147;27508;-78
2022/10/29 01:56:54;;;;;;;7.63;4.33;;;15.60;99.90;;;;;;942206;147;27508;-78
2022/10/29 01:59:20;;;;;;;6.03;4.00;;;15.60;99.90;;;;;;941816;148;27309;-78
2022/10/29 02:02:06;;;;;;;6.07;4.17;;;15.60;99.90;;;;;;943763;148;27449;-79
2022/10/29 02:04:41;;;;;;;7.45;4.40;;;15.50;99.90;;;;;;940740;148;27336;-78
2022/10/29 02:07:38;;;;;;;6.85;4.17;;;15.50;99.90;;;;;;941572;150;27324;-79
2022/10/29 02:10:14;;;;;;;6.10;3.70;;;15.40;99.90;;;;;;942235;148;27309;-80
2022/10/29 02:12:47;;;;;;;5.60;3.63;;;15.30;99.90;;;;;;943768;148;27447;-80
2022/10/29 02:15:38;;;;;;;5.92;4.47;;;15.30;99.90;;;;;;941733;148;27433;-80
2022/10/29 02:18:05;;;;;;;9.20;3.75;;;15.20;99.90;;;;;;941501;148;27370;-80
2022/10/29 02:20:31;;;;;;;7.00;4.42;;;15.20;99.90;;;;;;941425;148;28016;-78
2022/10/29 02:22:58;;;;;;;4.95;4.12;;;15.20;99.90;;;;;;941464;148;27414;-80
2022/10/29 02:25:24;;;;;;;5.28;3.62;;;15.10;99.90;;;;;;943625;148;27293;-80
2022/10/29 02:27:51;;;;;;;7.30;3.60;;;15.10;99.90;;;;;;943952;148;27336;-79
2022/10/29 02:30:18;;;;;;;5.53;3.97;;;15.10;99.90;;;;;;944171;148;27376;-80
2022/10/29 02:32:44;;;;;;;7.80;3.93;;;15.10;99.90;;;;;;942066;148;27399;-80
2022/10/29 02:35:11;;;;;;;9.27;4.30;;;15.00;99.90;;;;;;943458;148;27305;-80
2022/10/29 02:37:37;;;;;;;8.30;4.17;;;15.00;99.90;;;;;;943906;148;27313;-80
2022/10/29 02:40:04;;;;;;;6.53;3.87;;;15.00;99.90;;;;;;941128;148;27462;-79
2022/10/29 02:42:31;;;;;;;5.53;4.77;;;14.90;99.90;;;;;;944218;148;27383;-80
2022/10/29 02:44:57;;;;;;;7.87;4.33;;;14.90;99.90;;;;;;944640;150;27438;-80
2022/10/29 02:47:24;;;;;;;7.63;4.03;;;14.90;99.90;;;;;;944925;148;27539;-79
2022/10/29 02:49:50;;;;;;;6.50;3.67;;;14.90;99.90;;;;;;942188;150;27381;-79
2022/10/29 02:52:17;;;;;;;8.70;4.63;;;14.80;99.90;;;;;;944175;147;27333;-79
2022/10/29 02:54:43;;;;;;;9.40;4.17;;;14.80;99.90;;;;;;946049;148;27352;-79
2022/10/29 02:57:10;;;;;;;7.90;4.62;;;14.80;99.90;;;;;;942236;148;27747;-79
2022/10/29 02:59:37;;;;;;;6.43;4.60;;;14.80;99.90;;;;;;937906;151;27330;-79
2022/10/29 03:02:03;;;;;;;12.10;4.10;;;14.80;99.90;;;;;;939759;151;27707;-79
2022/10/29 03:04:30;;;;;;;6.23;3.90;;;14.80;99.90;;;;;;924176;154;27426;-79
2022/10/29 03:06:58;;;;;;;7.77;4.83;;;14.80;99.90;;;;;;925290;150;27830;-79
2022/10/29 03:09:24;;;;;;;4.77;3.93;;;14.70;99.90;;;;;;925138;154;27332;-79
2022/10/29 03:11:51;;;;;;;7.60;3.90;;;14.70;99.90;;;;;;948109;150;27344;-79
2022/10/29 03:14:17;;;;;;;8.93;4.30;;;14.70;99.90;;;;;;931274;150;28555;-79
2022/10/29 03:16:44;;;;;;;7.33;4.87;;;14.70;99.90;;;;;;931254;150;27422;-79
2022/10/29 03:19:11;;;;;;;10.05;3.83;;;14.70;99.90;;;;;;939608;151;27811;-79
2022/10/29 03:21:37;;;;;;;6.83;4.40;;;14.70;99.90;;;;;;948235;149;27311;-79
2022/10/29 03:24:04;;;;;;;6.37;3.70;;;14.70;99.90;;;;;;946541;150;27348;-79
2022/10/29 03:26:30;;;;;;;7.13;4.30;;;14.70;99.90;;;;;;932719;152;27360;-79
2022/10/29 03:28:57;;;;;;;12.33;4.57;;;14.70;99.90;;;;;;929661;152;27305;-79
2022/10/29 03:31:23;;;;;;;6.03;4.20;;;14.70;99.90;;;;;;923699;151;27330;-80
2022/10/29 03:33:50;;;;;;;6.23;4.33;;;14.70;99.90;;;;;;941084;149;27308;-80
2022/10/29 03:36:17;;;;;;;6.78;4.33;;;14.70;99.90;;;;;;940485;148;27349;-80
2022/10/29 03:38:43;;;;;;;5.53;3.75;;;14.70;99.90;;;;;;933911;152;27452;-80
2022/10/29 03:41:10;;;;;;;5.47;4.20;;;14.60;99.90;;;;;;924412;153;28234;-80
2022/10/29 03:43:36;;;;;;;5.63;3.53;;;14.70;99.90;;;;;;941073;151;27261;-80
2022/10/29 03:46:03;;;;;;;7.00;3.90;;;14.60;99.90;;;;;;934062;152;27391;-80
2022/10/29 03:48:30;;;;;;;4.73;3.80;;;14.60;99.90;;;;;;939170;150;27354;-79
2022/10/29 03:50:56;;;;;;;6.47;3.80;;;14.60;99.90;;;;;;947433;149;27352;-79
2022/10/29 03:53:23;;;;;;;5.47;4.40;;;14.60;99.90;;;;;;929663;153;27520;-79
2022/10/29 03:55:50;;;;;;;10.98;4.62;;;14.50;99.90;;;;;;925954;153;27454;-79
2022/10/29 03:58:16;;;;;;;8.68;3.92;;;14.50;99.90;;;;;;942471;149;27405;-79
2022/10/29 04:00:43;;;;;;;6.83;4.05;;;14.40;99.90;;;;;;928606;150;27401;-79
2022/10/29 04:03:09;;;;;;;6.17;3.75;;;14.40;99.90;;;;;;930654;149;27307;-79
2022/10/29 04:05:36;;;;;;;5.62;4.03;;;14.40;99.90;;;;;;938638;149;27402;-79
2022/10/29 04:08:02;;;;;;;6.60;3.70;;;14.40;99.90;;;;;;939503;149;28459;-79
2022/10/29 04:10:30;;;;;;;8.65;3.83;;;14.40;99.90;;;;;;940282;149;27983;-79
2022/10/29 04:12:55;;;;;;;6.20;4.13;;;14.30;99.90;;;;;;939370;149;27367;-79
2022/10/29 04:15:22;;;;;;;9.53;4.33;;;14.30;99.90;;;;;;941049;149;27336;-79
2022/10/29 04:17:49;;;;;;;5.60;4.60;;;14.30;99.90;;;;;;937889;149;27400;-79
2022/10/29 04:20:15;;;;;;;6.27;3.67;;;14.30;99.90;;;;;;938766;149;27361;-79
2022/10/29 04:22:42;;;;;;;4.37;3.67;;;14.30;99.90;;;;;;924021;150;27336;-79
2022/10/29 04:25:09;;;;;;;7.78;4.12;;;14.30;99.90;;;;;;936245;149;27305;-79
2022/10/29 04:27:35;;;;;;;5.33;3.98;;;14.20;99.90;;;;;;938634;149;27310;-79
2022/10/29 04:30:02;;;;;;;10.23;3.60;;;14.20;99.90;;;;;;936989;149;27379;-79
2022/10/29 04:32:28;;;;;;;6.27;4.20;;;14.20;99.90;;;;;;934057;149;27382;-79
2022/10/29 04:34:55;;;;;;;5.45;3.55;;;14.20;99.90;;;;;;937021;149;27448;-80
2022/10/29 04:37:21;;;;;;;11.17;4.27;;;14.20;99.90;;;;;;931677;149;27337;-80
2022/10/29 04:39:48;;;;;;;7.57;4.27;;;14.20;99.90;;;;;;938308;149;27297;-79
2022/10/29 04:42:15;;;;;;;6.87;4.62;;;14.20;99.90;;;;;;936884;149;27334;-79
2022/10/29 04:44:41;;;;;;;12.90;4.80;;;14.10;99.90;;;;;;937033;149;27412;-79
2022/10/29 04:47:08;;;;;;;7.23;3.97;;;14.20;99.90;;;;;;936815;149;27395;-79
2022/10/29 04:49:34;;;;;;;8.07;4.50;;;14.20;99.90;;;;;;938565;149;27434;-79
2022/10/29 04:52:01;;;;;;;10.13;4.03;;;14.10;99.90;;;;;;938213;148;27323;-79
2022/10/29 04:54:28;;;;;;;7.47;4.87;;;14.20;99.90;;;;;;941701;147;27379;-79
2022/10/29 04:56:54;;;;;;;7.70;4.53;;;14.20;99.90;;;;;;929052;149;27381;-79
2022/10/29 04:59:21;;;;;;;6.60;4.20;;;14.20;99.90;;;;;;933768;149;27961;-79
2022/10/29 05:01:47;;;;;;;6.87;4.57;;;14.20;99.90;;;;;;940098;148;27334;-80
2022/10/29 05:04:14;;;;;;;11.43;5.00;;;14.30;99.90;;;;;;957812;145;27827;-80
2022/10/29 05:06:41;;;;;;;7.45;4.40;;;14.30;99.90;;;;;;942102;148;27433;-80
2022/10/29 05:09:07;;;;;;;7.37;4.53;;;14.30;99.90;;;;;;939792;148;27354;-80
2022/10/29 05:11:34;;;;;;;11.37;5.00;;;14.40;99.90;;;;;;956694;146;27445;-80
2022/10/29 05:14:00;;;;;;;10.53;4.70;;;14.50;99.90;;;;;;950615;147;28171;-80
2022/10/29 05:16:27;;;;;;;5.95;4.30;;;14.50;99.90;;;;;;956787;148;27322;-80
2022/10/29 05:18:53;;;;;;;5.57;4.17;;;14.60;99.90;;;;;;954801;148;27232;-80
2022/10/29 05:21:20;;;;;;;6.07;4.20;;;14.60;99.90;;;;;;951167;149;27311;-79
2022/10/29 05:23:47;;;;;;;5.62;4.28;;;14.70;99.90;;;;;;954700;149;27360;-79
2022/10/29 05:26:13;;;;;;;5.95;4.58;;;14.80;99.90;;;;;;952255;149;27323;-79
2022/10/29 05:28:40;;;;;;;7.95;4.35;;;14.80;99.90;;;;;;953536;149;27364;-80
2022/10/29 05:31:06;;;;;;;8.63;4.40;;;14.90;99.90;;;;;;950615;146;27402;-80
2022/10/29 05:33:33;;;;;;;5.30;3.98;;;14.90;99.90;;;;;;953315;149;27384;-80
2022/10/29 05:36:00;;;;;;;7.15;3.87;;;15.00;99.90;;;;;;950423;149;27423;-80
2022/10/29 05:38:26;;;;;;;4.40;3.72;;;15.10;99.90;;;;;;953165;149;27444;-80
2022/10/29 05:40:53;;;;;;;7.37;3.73;;;15.10;99.90;;;;;;951169;148;27693;-80
2022/10/29 05:43:19;;;;;;;6.97;4.10;;;15.20;99.90;;;;;;951739;149;27423;-80
2022/10/29 05:45:46;;;;;;;11.97;4.70;;;15.20;99.90;;;;;;949799;149;27404;-80
2022/10/29 05:48:13;;;;;;;11.18;4.90;;;15.30;99.90;;;;;;952548;149;27308;-80
2022/10/29 05:50:39;;;;;;;5.28;3.47;;;15.30;99.90;;;;;;951038;148;27363;-80
2022/10/29 05:53:06;;;;;;;8.93;4.10;;;15.40;99.90;;;;;;953955;149;28299;-80
2022/10/29 05:55:32;;;;;;;7.45;4.33;;;15.40;99.90;;;;;;951965;149;27335;-80
2022/10/29 05:57:59;;;;;;;5.90;4.10;;;15.40;99.90;;;;;;951736;149;27426;-80
2022/10/29 06:00:26;;;;;;;8.13;4.92;;;15.50;99.90;;;;;;944885;149;27433;-80
2022/10/29 06:02:52;;;;;;;5.70;3.90;;;15.50;99.90;;;;;;946341;149;27443;-80
2022/10/29 06:05:19;;;;;;;5.35;3.52;;;15.50;99.90;;;;;;943502;149;27447;-80
2022/10/29 06:07:45;;;;;;;8.03;4.40;;;15.60;99.90;;;;;;945225;149;27664;-80
2022/10/29 06:10:12;;;;;;;6.25;3.85;;;15.60;99.90;;;;;;945972;149;27392;-80
2022/10/29 06:12:38;;;;;;;7.92;4.28;;;15.60;99.90;;;;;;944887;147;27273;-80
2022/10/29 06:15:05;;;;;;;6.95;4.50;;;15.60;99.90;;;;;;945443;149;27726;-80
2022/10/29 06:17:32;;;;;;;9.53;4.45;;;15.70;99.90;;;;;;946009;149;27344;-80
2022/10/29 06:19:59;;;;;;;7.10;3.92;;;15.70;99.90;;;;;;945107;149;27517;-80
2022/10/29 06:22:25;;;;;;;7.97;4.62;;;15.70;99.90;;;;;;946520;149;27269;-81
2022/10/29 06:24:52;;;;;;;5.87;4.00;;;15.70;99.90;;;;;;947095;149;27353;-80
2022/10/29 06:27:18;;;;;;;4.97;4.40;;;15.70;99.90;;;;;;945561;149;27432;-79
2022/10/29 06:29:45;;;;;;;9.45;4.20;;;15.70;99.90;;;;;;944557;149;27332;-79
2022/10/29 06:32:12;;;;;;;10.55;4.70;;;15.80;99.90;;;;;;945757;149;27356;-79
2022/10/29 06:34:38;;;;;;;9.40;4.20;;;15.80;99.90;;;;;;945626;149;27339;-79
2022/10/29 06:37:05;;;;;;;9.03;3.92;;;15.80;99.90;;;;;;944966;149;27391;-79
2022/10/29 06:39:31;;;;;;;7.00;5.35;;;15.80;99.90;;;;;;945785;149;27288;-79
2022/10/29 06:41:58;;;;;;;7.10;4.05;;;15.90;99.90;;;;;;948437;147;27319;-79
2022/10/29 06:44:24;;;;;;;5.08;3.98;;;15.90;99.90;;;;;;947417;147;27519;-79
2022/10/29 06:46:51;;;;;;;8.75;4.95;;;15.90;99.90;;;;;;943574;149;28313;-79
2022/10/29 06:49:18;;;;;;;6.55;4.53;;;16.00;99.90;;;;;;943993;149;27389;-79
2022/10/29 06:51:44;;;;;;;8.73;4.75;;;16.00;99.90;;;;;;942977;149;27387;-79
2022/10/29 06:54:11;;;;;;;6.83;4.03;;;16.00;99.90;;;;;;945800;149;27433;-79
2022/10/29 06:56:37;;;;;;;5.83;4.12;;;16.00;99.90;;;;;;946341;149;27362;-79
2022/10/29 06:59:04;;;;;;;9.63;4.25;;;16.10;99.90;;;;;;947445;149;27883;-79
2022/10/29 07:01:32;;;;;;;9.48;4.47;;;16.10;99.90;;;;;;948530;149;27366;-79
2022/10/29 07:03:57;;;;;;;5.97;4.00;;;16.10;99.90;;;;;;952666;148;27345;-79
2022/10/29 07:06:24;;;;;;;9.35;4.03;;;16.20;99.90;;;;;;948806;149;27790;-79
2022/10/29 07:08:50;;;;;;;10.28;4.50;;;16.20;99.90;;;;;;950973;148;27469;-79
2022/10/29 07:11:17;;;;;;;6.70;4.22;;;16.20;99.90;;;;;;950402;149;27366;-79
2022/10/29 07:13:44;;;;;;;6.37;4.50;;;16.30;99.90;;;;;;950765;149;27297;-79
2022/10/29 07:16:10;;;;;;;9.88;4.15;;;16.30;99.90;;;;;;951095;149;27300;-79
2022/10/29 07:18:37;;;;;;;8.55;4.22;;;16.30;99.90;;;;;;950666;149;27307;-79
2022/10/29 07:21:03;;;;;;;5.70;4.00;;;16.40;99.90;;;;;;953471;149;27273;-79
2022/10/29 07:23:30;;;;;;;11.30;5.50;;;16.40;99.90;;;;;;950777;149;27347;-79
2022/10/29 07:25:56;;;;;;;9.55;4.78;;;16.50;99.90;;;;;;952499;149;27327;-79
2022/10/29 07:28:24;;;;;;;8.50;4.20;;;16.50;99.90;;;;;;951347;149;27384;-79
2022/10/29 07:30:50;;;;;;;8.55;3.98;;;16.60;99.90;;;;;;947330;149;27369;-79
2022/10/29 07:33:16;;;;;;;4.42;4.00;;;16.60;99.90;;;;;;950375;149;27283;-79
2022/10/29 07:35:43;;;;;;;7.40;4.50;;;16.70;99.90;;;;;;946415;149;27337;-79
2022/10/29 07:38:09;;;;;;;11.68;5.12;;;16.70;99.90;;;;;;949032;149;27356;-79
2022/10/29 07:40:36;;;;;;;7.00;4.62;;;16.80;99.90;;;;;;950956;149;27348;-79
2022/10/29 07:43:03;;;;;;;7.10;4.50;;;16.80;99.90;;;;;;947897;149;27271;-79
2022/10/29 07:45:29;;;;;;;11.68;4.85;;;16.90;99.90;;;;;;948573;149;27729;-79
2022/10/29 07:47:59;;;;;;;5.65;4.33;;;16.90;99.90;;;;;;948839;149;27311;-79
2022/10/29 07:50:25;;;;;;;8.10;5.90;;;17.00;99.90;;;;;;947467;149;27457;-79
2022/10/29 07:52:52;;;;;;;8.68;4.83;;;17.00;99.90;;;;;;948741;149;27432;-79
2022/10/29 07:55:18;;;;;;;6.55;4.55;;;17.00;99.90;;;;;;948560;149;27297;-79
2022/10/29 07:57:46;;;;;;;6.17;4.65;;;17.10;99.90;;;;;;951438;149;27316;-79
2022/10/29 08:00:13;;;;;;;5.67;4.92;;;17.10;99.90;;;;;;947474;149;27333;-79
2022/10/29 08:02:41;;;;;;;6.83;4.60;;;17.20;99.90;;;;;;945576;149;27367;-79
2022/10/29 08:05:06;;;;;;;10.30;4.90;;;17.20;99.90;;;;;;945916;147;27362;-79
2022/10/29 08:07:33;;;;;;;7.40;4.33;;;17.20;99.90;;;;;;945832;147;27352;-79
2022/10/29 08:09:59;;;;;;;17.40;4.95;;;17.30;99.90;;;;;;945238;147;27441;-79
2022/10/29 08:12:26;;;;;;;10.05;4.35;;;17.40;99.90;;;;;;945213;147;27385;-79
2022/10/29 08:14:53;;;;;;;5.65;4.12;;;17.40;99.90;;;;;;946011;147;27844;-79
2022/10/29 08:17:19;;;;;;;6.12;4.08;;;17.50;99.90;;;;;;944424;147;27405;-79
2022/10/29 08:19:46;;;;;;;6.42;4.92;;;17.60;99.90;;;;;;945192;147;27352;-79
2022/10/29 08:22:12;;;;;;;6.50;5.12;;;17.70;99.90;;;;;;946244;147;27372;-79
2022/10/29 08:24:39;;;;;;;6.60;4.92;;;17.80;99.90;;;;;;946107;147;27277;-79
2022/10/29 08:27:06;;;;;;;7.28;5.15;;;17.90;99.90;;;;;;944917;147;27397;-79
2022/10/29 08:29:32;;;;;;;9.88;5.60;;;18.00;99.90;;;;;;943934;149;27346;-79
2022/10/29 08:31:59;;;;;;;6.90;5.08;;;18.10;99.90;;;;;;945823;147;27343;-79
2022/10/29 08:34:25;;;;;;;6.72;4.30;;;18.30;99.90;;;;;;946148;149;27340;-79
2022/10/29 08:36:52;;;;;;;6.42;5.05;;;18.40;99.90;;;;;;945086;149;27326;-79
2022/10/29 08:39:18;;;;;;;7.95;5.12;;;18.60;99.90;;;;;;946427;149;27319;-79
2022/10/29 08:42:06;;;;;;;8.60;5.12;;;18.70;99.90;;;;;;944325;149;27331;-79
2022/10/29 08:44:42;;;;;;;8.28;4.65;;;18.90;99.90;;;;;;937525;149;27435;-79
2022/10/29 08:47:08;;;;;;;10.10;4.87;;;19.00;99.90;;;;;;945052;149;27450;-79
2022/10/29 08:49:41;;;;;;;6.92;4.20;;;19.20;99.90;;;;;;942812;149;27355;-80
2022/10/29 08:52:10;;;;;;;6.87;4.75;;;19.20;99.90;;;;;;944209;147;27259;-80
2022/10/29 08:54:36;;;;;;;7.00;3.95;;;19.40;99.90;;;;;;945401;149;27437;-79
2022/10/29 08:57:05;;;;;;;7.60;4.17;;;19.50;99.90;;;;;;945074;149;27345;-80
2022/10/29 08:59:32;;;;;;;8.45;3.95;;;19.50;99.90;;;;;;944420;149;27386;-79
2022/10/29 09:01:59;;;;;;;7.60;3.90;;;19.60;99.90;;;;;;946111;147;27327;-80
2022/10/29 09:04:34;;;;;;;6.70;4.05;;;19.70;99.90;;;;;;956796;146;27343;-80
2022/10/29 09:07:38;;;;;;;6.10;3.83;;;19.80;99.90;;;;;;940233;148;27400;-79
2022/10/29 09:10:10;;;;;;;8.53;3.55;;;19.90;99.90;;;;;;947436;148;27441;-79
2022/10/29 09:12:49;;;;;;;6.25;3.83;;;20.00;99.90;;;;;;939277;149;27367;-80
2022/10/29 09:15:18;;;;;;;6.75;3.85;;;20.00;99.90;;;;;;926378;149;27480;-79
2022/10/29 09:18:03;;;;;;;7.83;3.65;;;20.10;99.90;;;;;;936003;149;27383;-79
2022/10/29 09:20:36;;;;;;;7.58;3.75;;;20.20;99.90;;;;;;947884;149;27324;-79
2022/10/29 09:23:29;;;;;;;7.00;3.60;;;20.30;99.90;;;;;;938036;149;27399;-80
2022/10/29 09:26:02;;;;;;;6.92;4.47;;;20.30;99.90;;;;;;939918;149;27453;-80
2022/10/29 09:28:43;;;;;;;6.92;3.75;;;20.40;99.90;;;;;;939165;149;27409;-80
2022/10/29 09:31:15;;;;;;;9.78;4.08;;;20.50;99.90;;;;;;940345;149;27368;-80
2022/10/29 09:33:45;;;;;;;9.43;4.90;;;20.50;99.70;;;;;;936221;149;27321;-79
2022/10/29 09:36:14;;;;;;;7.92;4.45;;;20.60;99.50;;;;;;953955;146;27327;-80
2022/10/29 09:38:41;;;;;;;6.10;3.85;;;20.60;99.20;;;;;;940619;149;28130;-79
2022/10/29 09:41:11;;;;;;;8.33;3.80;;;20.60;99.20;;;;;;943952;149;27333;-79
2022/10/29 09:43:38;;;;;;;4.95;3.95;;;20.70;99.30;;;;;;934106;149;27318;-79
2022/10/29 09:46:04;;;;;;;8.05;3.40;;;20.80;99.50;;;;;;940493;149;27331;-80
2022/10/29 09:48:54;;;;;;;5.00;3.47;;;20.90;99.70;;;;;;957517;146;27332;-80
2022/10/29 09:51:24;;;;;;;6.40;4.00;;;21.00;99.50;;;;;;953603;146;27345;-80
2022/10/29 09:53:50;;;;;;;6.20;3.47;;;21.10;99.40;;;;;;937419;149;27500;-79
2022/10/29 09:56:17;;;;;;;4.67;3.35;;;21.20;99.00;;;;;;952165;148;27392;-80
2022/10/29 09:58:43;;;;;;;5.90;3.85;;;21.30;98.60;;;;;;940203;148;27350;-79
2022/10/29 10:01:10;;;;;;;5.65;3.70;;;21.50;98.20;;;;;;933843;149;27340;-78
2022/10/29 10:03:45;;;;;;;7.83;3.45;;;21.60;97.80;;;;;;933621;149;27443;-80
2022/10/29 10:06:09;;;;;;;3.95;3.27;;;21.60;97.40;;;;;;934723;149;27309;-79
2022/10/29 10:08:35;;;;;;;5.22;3.17;;;21.70;97.20;;;;;;937362;149;27356;-80
2022/10/29 10:11:03;;;;;;;5.78;3.50;;;21.80;97.00;;;;;;921886;150;27350;-80
2022/10/29 10:13:31;;;;;;;5.65;3.60;;;21.90;96.60;;;;;;941388;146;27439;-79
2022/10/29 10:16:01;;;;;;;4.97;3.67;;;22.00;96.20;;;;;;939486;150;27414;-80
2022/10/29 10:18:27;;;;;;;8.08;3.87;;;22.10;95.80;;;;;;941322;149;27404;-80
2022/10/29 10:21:00;;;;;;;6.20;4.08;;;22.10;95.50;;;;;;931603;150;27326;-80
2022/10/29 10:23:45;;;;;;;5.17;3.40;;;22.20;95.30;;;;;;914499;149;27374;-80
2022/10/29 10:26:41;;;;;;;5.75;3.67;;;22.20;95.10;;;;;;921485;150;27756;-80
2022/10/29 10:29:17;;;;;;;6.90;3.65;;;22.20;95.00;;;;;;933645;149;27323;-80
2022/10/29 10:31:46;;;;;;;6.58;3.08;;;22.30;94.80;;;;;;929182;150;27307;-80
2022/10/29 10:34:24;;;;;;;4.87;4.00;;;22.30;94.60;;;;;;939348;147;27345;-80
2022/10/29 10:36:54;;;;;;;8.30;3.98;;;22.40;94.30;;;;;;934253;149;27400;-80
2022/10/29 10:39:29;;;;;;;8.20;3.98;;;22.50;94.40;;;;;;930270;149;27453;-79
2022/10/29 10:41:56;;;;;;;5.28;3.40;;;22.50;94.20;;;;;;942195;149;27268;-80
2022/10/29 10:44:22;;;;;;;5.92;3.75;;;22.60;94.10;;;;;;942010;147;27337;-80
2022/10/29 10:46:49;;;;;;;7.33;3.75;;;22.70;93.90;;;;;;921311;150;27375;-78
2022/10/29 10:49:16;;;;;;;6.75;3.35;;;22.70;93.60;;;;;;944755;148;27468;-80
2022/10/29 10:51:42;;;;;;;8.33;3.70;;;22.80;93.70;;;;;;926858;149;27319;-80
2022/10/29 10:54:36;;;;;;;5.03;3.65;;;22.90;93.20;;;;;;925089;150;27771;-78
2022/10/29 10:57:12;;;;;;;7.20;4.20;;;23.00;93.30;;;;;;927060;150;27404;-80
2022/10/29 10:59:41;;;;;;;5.20;3.45;;;23.10;93.00;;;;;;928392;150;27400;-80
2022/10/29 11:02:13;;;;;;;5.33;3.55;;;23.30;92.80;;;;;;937822;149;27468;-80
2022/10/29 11:04:40;;;;;;;6.95;4.60;;;23.40;91.80;;;;;;938698;149;28028;-80
2022/10/29 11:07:07;;;;;;;6.58;4.03;;;23.60;91.60;;;;;;939304;148;27709;-80
2022/10/29 11:09:33;;;;;;;5.00;4.03;;;23.70;91.30;;;;;;946999;149;27687;-79
2022/10/29 11:12:05;;;;;;;4.12;3.77;;;23.80;90.70;;;;;;939021;149;27389;-79
2022/10/29 11:14:35;;;;;;;6.58;4.00;;;23.90;90.40;;;;;;942329;148;27417;-79
2022/10/29 11:17:01;;;;;;;6.20;3.70;;;24.00;89.70;;;;;;943913;147;27269;-79
2022/10/29 11:19:40;;;;;;;7.45;4.83;;;24.10;88.50;;;;;;940511;149;27412;-78
2022/10/29 11:22:15;;;;;;;4.65;3.50;;;24.20;88.40;;;;;;937847;149;27387;-78
2022/10/29 11:24:44;;;;;;;6.50;3.72;;;24.30;87.80;;;;;;955880;148;28363;-80
2022/10/29 11:27:23;;;;;;;8.65;3.80;;;24.40;86.80;;;;;;953496;148;27385;-78
2022/10/29 11:30:04;;;;;;;6.97;3.67;;;24.50;86.00;;;;;;956037;146;27288;-80
2022/10/29 11:32:46;;;;;;;11.05;4.90;;;24.50;85.60;;;;;;942162;149;27370;-80
2022/10/29 11:35:16;;;;;;;6.75;3.95;;;24.60;85.00;;;;;;958041;146;27347;-80
2022/10/29 11:38:00;;;;;;;6.25;4.00;;;24.70;85.10;;;;;;949214;148;27288;-79
2022/10/29 11:40:47;;;;;;;4.50;3.55;;;24.80;84.40;;;;;;940941;148;27411;-80
2022/10/29 11:43:14;;;;;;;8.00;4.05;;;24.90;84.10;;;;;;941575;148;27313;-80
2022/10/29 11:45:58;;;;;;;5.50;3.98;;;25.10;83.90;;;;;;947310;149;27404;-81
2022/10/29 11:48:25;;;;;;;8.48;4.55;;;25.20;82.90;;;;;;953713;146;28282;-80
2022/10/29 11:51:00;;;;;;;8.45;4.28;;;25.20;82.30;;;;;;944532;148;27287;-81
2022/10/29 11:53:31;;;;;;;6.92;3.77;;;25.30;81.70;;;;;;942878;148;27297;-81
2022/10/29 11:56:05;;;;;;;8.05;3.30;;;25.40;80.60;;;;;;937103;149;27387;-81
2022/10/29 11:58:37;;;;;;;6.30;3.15;;;25.50;80.40;;;;;;955610;148;27427;-80
2022/10/29 12:01:41;;;;;;;7.60;3.47;;;25.60;80.20;;;;;;958313;148;27424;-81
2022/10/29 12:04:26;;;;;;;4.87;2.85;;;25.70;79.80;;;;;;952480;148;27355;-80
2022/10/29 12:07:06;;;;;;;7.12;3.47;;;25.80;79.60;;;;;;949232;149;27387;-80
2022/10/29 12:09:45;;;;;;;4.85;3.08;;;25.90;79.00;;;;;;951990;149;27343;-80
2022/10/29 12:12:11;;;;;;;5.03;3.27;;;26.00;78.30;;;;;;940423;151;28330;-80
2022/10/29 12:14:59;;;;;;;3.90;2.77;;;26.10;77.80;;;;;;939977;151;27367;-81
2022/10/29 12:17:31;;;;;;;5.42;3.22;;;26.20;77.90;;;;;;941311;151;27349;-80
2022/10/29 12:20:06;;;;;;;5.72;2.92;;;26.20;76.70;;;;;;915831;151;27467;-81
2022/10/29 12:22:51;;;;;;;5.72;3.77;;;26.30;76.50;;;;;;933503;152;27707;-80
2022/10/29 12:25:23;;;;;;;4.50;3.05;;;26.40;76.40;;;;;;947781;150;27315;-81
2022/10/29 12:28:17;;;;;;;6.78;3.58;;;26.40;75.70;;;;;;924261;153;27278;-79
2022/10/29 12:30:37;;;;;;;5.47;3.15;;;26.50;74.50;;;;;;947014;150;27425;-79
2022/10/29 12:33:15;;;;;;;7.70;3.25;;;26.50;74.40;;;;;;924279;150;27346;-79
2022/10/29 12:36:00;;;;;;;5.50;3.62;;;26.50;74.20;;;;;;934511;149;27375;-79
2022/10/29 12:38:39;;;;;;;4.35;3.30;;;26.50;74.30;;;;;;945518;149;27329;-79
2022/10/29 12:41:05;;;;;;;7.28;3.35;;;26.50;74.20;;;;;;946479;149;27354;-79
2022/10/29 12:43:32;;;;;;;4.08;2.98;;;26.50;73.90;;;;;;946092;147;27381;-79
2022/10/29 12:46:08;;;;;;;5.17;3.55;;;26.50;73.40;;;;;;946170;147;28635;-79
2022/10/29 12:48:37;;;;;;;6.78;3.75;;;26.50;73.50;;;;;;944505;149;27943;-79
2022/10/29 12:51:40;;;;;;;7.00;3.60;;;26.40;73.50;;;;;;929267;152;27389;-79
2022/10/29 12:54:19;;;;;;;6.67;3.70;;;26.40;73.60;;;;;;929234;152;27275;-79
2022/10/29 12:56:45;;;;;;;4.05;3.00;;;26.30;73.50;;;;;;946466;147;27336;-79
2022/10/29 12:59:24;;;;;;;5.65;3.37;;;26.20;73.40;;;;;;933935;152;27353;-79